sensor_id;sensor_type;location;lat;lon;timestamp;temperature;humidity
66722;SHT31;53633;49.932;10.884;2024-01-10T09:10:09;-2.32;69.78
66722;SHT31;53633;49.932;10.884;2024-01-10T09:12:36;-2.27;70.00
66722;SHT31;53633;49.932;10.884;2024-01-10T09:15:03;-2.17;70.10
66722;SHT31;53633;49.932;10.884;2024-01-10T09:17:30;-2.10;69.85
66722;SHT31;53633;49.932;10.884;2024-01-10T09:19:57;-2.03;69.71
66722;SHT31;53633;49.932;10.884;2024-01-10T09:22:24;-2.00;69.50
66722;SHT31;53633;49.932;10.884;2024-01-10T09:24:50;-1.92;69.42
66722;SHT31;53633;49.932;10.884;2024-01-10T09:27:19;-1.82;69.21
66722;SHT31;53633;49.932;10.884;2024-01-10T09:29:45;-1.58;68.63
66722;SHT31;53633;49.932;10.884;2024-01-10T09:32:12;-1.06;68.12
66722;SHT31;53633;49.932;10.884;2024-01-10T09:34:39;-0.69;66.85
66722;SHT31;53633;49.932;10.884;2024-01-10T09:37:06;-0.48;65.83
66722;SHT31;53633;49.932;10.884;2024-01-10T09:39:32;-0.28;65.25
66722;SHT31;53633;49.932;10.884;2024-01-10T09:41:59;-0.03;64.95
66722;SHT31;53633;49.932;10.884;2024-01-10T09:44:28;-0.09;63.81
66722;SHT31;53633;49.932;10.884;2024-01-10T09:46:55;-0.02;63.87
66722;SHT31;53633;49.932;10.884;2024-01-10T09:49:22;0.08;63.76
66722;SHT31;53633;49.932;10.884;2024-01-10T09:51:50;0.04;63.43
66722;SHT31;53633;49.932;10.884;2024-01-10T09:54:21;-0.03;63.08
66722;SHT31;53633;49.932;10.884;2024-01-10T09:56:47;0.01;63.11
66722;SHT31;53633;49.932;10.884;2024-01-10T09:59:14;-0.16;62.90
66722;SHT31;53633;49.932;10.884;2024-01-10T10:01:43;-0.21;62.92
66722;SHT31;53633;49.932;10.884;2024-01-10T10:04:12;-0.24;63.49
66722;SHT31;53633;49.932;10.884;2024-01-10T10:06:39;-0.45;63.04
66722;SHT31;53633;49.932;10.884;2024-01-10T10:09:07;-0.55;63.55
66722;SHT31;53633;49.932;10.884;2024-01-10T10:11:34;-0.53;63.73
66722;SHT31;53633;49.932;10.884;2024-01-10T10:14:14;-0.55;63.89
66722;SHT31;53633;49.932;10.884;2024-01-10T10:16:41;-0.61;63.88
66722;SHT31;53633;49.932;10.884;2024-01-10T10:19:09;-0.64;63.69
66722;SHT31;53633;49.932;10.884;2024-01-10T10:21:35;-0.60;63.81
66722;SHT31;53633;49.932;10.884;2024-01-10T10:24:03;-0.58;63.73
66722;SHT31;53633;49.932;10.884;2024-01-10T10:26:32;-0.55;63.82
66722;SHT31;53633;49.932;10.884;2024-01-10T10:28:59;-0.64;64.12
66722;SHT31;53633;49.932;10.884;2024-01-10T10:31:26;-0.61;64.17
66722;SHT31;53633;49.932;10.884;2024-01-10T10:33:53;-0.62;64.32
66722;SHT31;53633;49.932;10.884;2024-01-10T10:36:21;-0.62;64.46
66722;SHT31;53633;49.932;10.884;2024-01-10T10:38:48;-0.64;64.39
66722;SHT31;53633;49.932;10.884;2024-01-10T10:41:15;-0.61;64.31
66722;SHT31;53633;49.932;10.884;2024-01-10T10:43:42;-0.60;64.43
66722;SHT31;53633;49.932;10.884;2024-01-10T10:46:10;-0.61;64.74
66722;SHT31;53633;49.932;10.884;2024-01-10T10:48:37;-0.53;64.51
66722;SHT31;53633;49.932;10.884;2024-01-10T10:51:05;-0.54;64.50
66722;SHT31;53633;49.932;10.884;2024-01-10T10:53:34;-0.60;64.42
66722;SHT31;53633;49.932;10.884;2024-01-10T10:56:02;-0.54;63.85
66722;SHT31;53633;49.932;10.884;2024-01-10T10:58:32;-0.50;64.14
66722;SHT31;53633;49.932;10.884;2024-01-10T11:00:59;-0.44;63.67
66722;SHT31;53633;49.932;10.884;2024-01-10T11:03:28;-0.42;63.34
66722;SHT31;53633;49.932;10.884;2024-01-10T11:05:57;-0.38;63.63
66722;SHT31;53633;49.932;10.884;2024-01-10T11:08:26;-0.36;63.62
66722;SHT31;53633;49.932;10.884;2024-01-10T11:10:56;-0.37;63.08
66722;SHT31;53633;49.932;10.884;2024-01-10T11:13:28;-0.31;63.38
66722;SHT31;53633;49.932;10.884;2024-01-10T11:16:29;-0.33;63.86
66722;SHT31;53633;49.932;10.884;2024-01-10T11:19:27;-0.30;64.14
66722;SHT31;53633;49.932;10.884;2024-01-10T11:22:07;-0.28;63.93
66722;SHT31;53633;49.932;10.884;2024-01-10T11:24:37;-0.26;63.89
66722;SHT31;53633;49.932;10.884;2024-01-10T11:27:10;-0.23;64.12
66722;SHT31;53633;49.932;10.884;2024-01-10T11:29:37;-0.19;64.03
66722;SHT31;53633;49.932;10.884;2024-01-10T11:32:05;-0.20;64.09
66722;SHT31;53633;49.932;10.884;2024-01-10T11:34:32;-0.19;64.06
66722;SHT31;53633;49.932;10.884;2024-01-10T11:37:11;-0.14;64.08
66722;SHT31;53633;49.932;10.884;2024-01-10T11:39:41;-0.07;63.71
66722;SHT31;53633;49.932;10.884;2024-01-10T11:42:09;-0.06;63.81
66722;SHT31;53633;49.932;10.884;2024-01-10T11:44:46;0.04;63.43
66722;SHT31;53633;49.932;10.884;2024-01-10T11:47:13;0.07;63.64
66722;SHT31;53633;49.932;10.884;2024-01-10T11:49:40;0.10;63.54
66722;SHT31;53633;49.932;10.884;2024-01-10T11:52:08;0.08;63.54
66722;SHT31;53633;49.932;10.884;2024-01-10T11:54:39;0.22;63.69
66722;SHT31;53633;49.932;10.884;2024-01-10T11:57:18;0.22;63.57
66722;SHT31;53633;49.932;10.884;2024-01-10T11:59:46;0.25;63.42
66722;SHT31;53633;49.932;10.884;2024-01-10T12:02:14;0.24;63.14
66722;SHT31;53633;49.932;10.884;2024-01-10T12:04:41;0.26;63.28
66722;SHT31;53633;49.932;10.884;2024-01-10T12:07:14;0.25;63.45
66722;SHT31;53633;49.932;10.884;2024-01-10T12:09:42;0.32;63.48
66722;SHT31;53633;49.932;10.884;2024-01-10T12:12:09;0.39;63.11
66722;SHT31;53633;49.932;10.884;2024-01-10T12:14:37;0.38;62.82
66722;SHT31;53633;49.932;10.884;2024-01-10T12:17:05;0.41;62.95
66722;SHT31;53633;49.932;10.884;2024-01-10T12:19:33;0.45;62.65
66722;SHT31;53633;49.932;10.884;2024-01-10T12:22:00;0.45;62.44
66722;SHT31;53633;49.932;10.884;2024-01-10T12:24:27;0.48;62.61
66722;SHT31;53633;49.932;10.884;2024-01-10T12:26:55;0.49;62.71
66722;SHT31;53633;49.932;10.884;2024-01-10T12:29:22;0.52;62.96
66722;SHT31;53633;49.932;10.884;2024-01-10T12:31:51;0.53;62.74
66722;SHT31;53633;49.932;10.884;2024-01-10T12:34:18;0.49;63.00
66722;SHT31;53633;49.932;10.884;2024-01-10T12:36:44;0.48;63.12
66722;SHT31;53633;49.932;10.884;2024-01-10T12:39:11;0.46;63.35
66722;SHT31;53633;49.932;10.884;2024-01-10T12:41:40;0.44;63.22
66722;SHT31;53633;49.932;10.884;2024-01-10T12:44:06;0.41;63.28
66722;SHT31;53633;49.932;10.884;2024-01-10T12:46:33;0.41;63.39
66722;SHT31;53633;49.932;10.884;2024-01-10T12:49:03;0.50;62.87
66722;SHT31;53633;49.932;10.884;2024-01-10T12:51:31;0.55;62.85
66722;SHT31;53633;49.932;10.884;2024-01-10T12:53:58;0.66;62.48
66722;SHT31;53633;49.932;10.884;2024-01-10T12:56:26;0.67;62.23
66722;SHT31;53633;49.932;10.884;2024-01-10T12:58:53;0.69;62.49
66722;SHT31;53633;49.932;10.884;2024-01-10T13:01:20;0.69;62.28
66722;SHT31;53633;49.932;10.884;2024-01-10T13:03:47;0.73;62.55
66722;SHT31;53633;49.932;10.884;2024-01-10T13:06:16;0.70;62.29
66722;SHT31;53633;49.932;10.884;2024-01-10T13:08:43;0.72;62.40
66722;SHT31;53633;49.932;10.884;2024-01-10T13:11:10;0.75;62.37
66722;SHT31;53633;49.932;10.884;2024-01-10T13:13:37;0.75;62.55
66722;SHT31;53633;49.932;10.884;2024-01-10T13:16:04;0.80;62.39
66722;SHT31;53633;49.932;10.884;2024-01-10T13:18:31;0.83;62.07
66722;SHT31;53633;49.932;10.884;2024-01-10T13:20:58;0.84;62.38
66722;SHT31;53633;49.932;10.884;2024-01-10T13:23:26;0.87;62.24
66722;SHT31;53633;49.932;10.884;2024-01-10T13:25:53;0.86;62.28
66722;SHT31;53633;49.932;10.884;2024-01-10T13:28:20;0.86;62.28
66722;SHT31;53633;49.932;10.884;2024-01-10T13:30:47;0.84;62.36
66722;SHT31;53633;49.932;10.884;2024-01-10T13:33:14;0.83;62.73
66722;SHT31;53633;49.932;10.884;2024-01-10T13:35:41;0.80;62.24
66722;SHT31;53633;49.932;10.884;2024-01-10T13:38:08;0.79;62.44
66722;SHT31;53633;49.932;10.884;2024-01-10T13:40:36;0.76;62.51
66722;SHT31;53633;49.932;10.884;2024-01-10T13:43:03;0.73;62.89
66722;SHT31;53633;49.932;10.884;2024-01-10T13:45:29;0.70;63.14
66722;SHT31;53633;49.932;10.884;2024-01-10T13:47:56;0.73;63.01
66722;SHT31;53633;49.932;10.884;2024-01-10T13:50:23;0.72;63.09
66722;SHT31;53633;49.932;10.884;2024-01-10T13:52:50;0.69;63.09
66722;SHT31;53633;49.932;10.884;2024-01-10T13:55:17;0.69;63.28
66722;SHT31;53633;49.932;10.884;2024-01-10T13:57:45;0.67;63.47
66722;SHT31;53633;49.932;10.884;2024-01-10T14:00:12;0.66;63.60
66722;SHT31;53633;49.932;10.884;2024-01-10T14:02:39;0.70;63.26
66722;SHT31;53633;49.932;10.884;2024-01-10T14:05:06;0.84;62.95
66722;SHT31;53633;49.932;10.884;2024-01-10T14:07:33;0.93;62.63
66722;SHT31;53633;49.932;10.884;2024-01-10T14:10:00;1.03;62.09
66722;SHT31;53633;49.932;10.884;2024-01-10T14:12:28;1.05;62.03
66722;SHT31;53633;49.932;10.884;2024-01-10T14:14:57;1.11;62.10
66722;SHT31;53633;49.932;10.884;2024-01-10T14:17:28;1.17;62.07
66722;SHT31;53633;49.932;10.884;2024-01-10T14:19:55;1.22;62.00
66722;SHT31;53633;49.932;10.884;2024-01-10T14:22:22;1.22;61.80
66722;SHT31;53633;49.932;10.884;2024-01-10T14:24:58;1.20;61.86
66722;SHT31;53633;49.932;10.884;2024-01-10T14:27:28;1.24;61.84
66722;SHT31;53633;49.932;10.884;2024-01-10T14:29:56;1.25;61.63
66722;SHT31;53633;49.932;10.884;2024-01-10T14:32:23;1.31;61.41
66722;SHT31;53633;49.932;10.884;2024-01-10T14:34:50;1.30;61.47
66722;SHT31;53633;49.932;10.884;2024-01-10T14:37:17;1.28;61.71
66722;SHT31;53633;49.932;10.884;2024-01-10T14:39:44;1.24;61.75
66722;SHT31;53633;49.932;10.884;2024-01-10T14:42:11;1.22;62.36
66722;SHT31;53633;49.932;10.884;2024-01-10T14:44:37;1.18;62.38
66722;SHT31;53633;49.932;10.884;2024-01-10T14:47:05;1.15;62.37
66722;SHT31;53633;49.932;10.884;2024-01-10T14:49:38;1.15;62.54
66722;SHT31;53633;49.932;10.884;2024-01-10T14:52:05;1.15;62.83
66722;SHT31;53633;49.932;10.884;2024-01-10T14:54:32;1.13;63.07
66722;SHT31;53633;49.932;10.884;2024-01-10T14:56:59;1.05;63.45
66722;SHT31;53633;49.932;10.884;2024-01-10T14:59:26;0.98;63.45
66722;SHT31;53633;49.932;10.884;2024-01-10T15:02:11;0.91;63.58
66722;SHT31;53633;49.932;10.884;2024-01-10T15:04:38;0.90;63.81
66722;SHT31;53633;49.932;10.884;2024-01-10T15:07:06;0.84;63.95
66722;SHT31;53633;49.932;10.884;2024-01-10T15:09:33;0.83;64.02
66722;SHT31;53633;49.932;10.884;2024-01-10T15:12:00;0.84;64.10
66722;SHT31;53633;49.932;10.884;2024-01-10T15:14:27;0.79;64.31
66722;SHT31;53633;49.932;10.884;2024-01-10T15:16:53;0.70;64.64
66722;SHT31;53633;49.932;10.884;2024-01-10T15:19:22;0.67;64.76
66722;SHT31;53633;49.932;10.884;2024-01-10T15:21:48;0.65;64.98
66722;SHT31;53633;49.932;10.884;2024-01-10T15:24:15;0.62;65.05
66722;SHT31;53633;49.932;10.884;2024-01-10T15:26:45;0.58;65.08
66722;SHT31;53633;49.932;10.884;2024-01-10T15:29:12;0.53;65.54
66722;SHT31;53633;49.932;10.884;2024-01-10T15:31:39;0.49;65.76
66722;SHT31;53633;49.932;10.884;2024-01-10T15:34:05;0.39;66.18
66722;SHT31;53633;49.932;10.884;2024-01-10T15:36:33;0.33;66.18
66722;SHT31;53633;49.932;10.884;2024-01-10T15:39:05;0.24;66.83
66722;SHT31;53633;49.932;10.884;2024-01-10T15:41:32;0.17;66.93
66722;SHT31;53633;49.932;10.884;2024-01-10T15:43:58;0.12;67.08
66722;SHT31;53633;49.932;10.884;2024-01-10T15:46:25;0.05;67.46
66722;SHT31;53633;49.932;10.884;2024-01-10T15:48:52;-0.02;67.70
66722;SHT31;53633;49.932;10.884;2024-01-10T15:51:19;-0.09;68.25
66722;SHT31;53633;49.932;10.884;2024-01-10T15:53:47;-0.20;68.93
66722;SHT31;53633;49.932;10.884;2024-01-10T15:56:14;-0.33;69.85
66722;SHT31;53633;49.932;10.884;2024-01-10T15:58:40;-0.41;70.59
66722;SHT31;53633;49.932;10.884;2024-01-10T16:01:07;-0.51;71.17
66722;SHT31;53633;49.932;10.884;2024-01-10T16:03:34;-0.57;70.95
66722;SHT31;53633;49.932;10.884;2024-01-10T16:06:01;-0.62;71.27
66722;SHT31;53633;49.932;10.884;2024-01-10T16:08:29;-0.65;71.29
66722;SHT31;53633;49.932;10.884;2024-01-10T16:10:57;-0.68;71.64
66722;SHT31;53633;49.932;10.884;2024-01-10T16:13:24;-0.72;71.69
66722;SHT31;53633;49.932;10.884;2024-01-10T16:15:52;-0.74;71.97
66722;SHT31;53633;49.932;10.884;2024-01-10T16:18:19;-0.79;72.19
66722;SHT31;53633;49.932;10.884;2024-01-10T16:20:47;-0.86;72.46
66722;SHT31;53633;49.932;10.884;2024-01-10T16:23:13;-0.92;72.79
66722;SHT31;53633;49.932;10.884;2024-01-10T16:25:40;-0.99;73.01
66722;SHT31;53633;49.932;10.884;2024-01-10T16:28:08;-1.03;73.17
66722;SHT31;53633;49.932;10.884;2024-01-10T16:30:35;-1.04;73.61
66722;SHT31;53633;49.932;10.884;2024-01-10T16:33:03;-1.12;73.85
66722;SHT31;53633;49.932;10.884;2024-01-10T16:35:30;-1.17;73.99
